Time;durP1;ratioP1;P1;durP2;ratioP2;P2;SDS_P1;SDS_P2;PMS_P1;PMS_P2;Temp;Humidity;BMP_temperature;BMP_pressure;BME280_temperature;BME280_humidity;BME280_pressure;Samples;Min_cycle;Max_cycle;Signal;HPM_P1;HPM_P2
2023/03/11 00:00:33;;;;;;;1.58;0.88;;;;;;;;;;5095647;28;19908;-82
2023/03/11 00:03:03;;;;;;;1.25;0.93;;;;;;;;;;5079394;28;20027;-84
2023/03/11 00:05:31;;;;;;;1.00;0.90;;;;;;;;;;5062843;28;20027;-82
2023/03/11 00:07:57;;;;;;;2.10;1.00;;;;;;;;;;5095937;28;20034;-83
2023/03/11 00:10:29;;;;;;;4.15;1.20;;;;;;;;;;5113694;28;20506;-83
2023/03/11 00:12:55;;;;;;;1.98;0.90;;;;;;;;;;5095633;28;20393;-82
2023/03/11 00:15:20;;;;;;;3.28;1.10;;;;;;;;;;5095688;28;20068;-83
2023/03/11 00:17:49;;;;;;;2.97;1.35;;;;;;;;;;5078704;28;20028;-82
2023/03/11 00:20:23;;;;;;;1.88;1.10;;;;;;;;;;5113362;28;20107;-83
2023/03/11 00:22:49;;;;;;;2.95;1.17;;;;;;;;;;5113684;28;20027;-83
2023/03/11 00:25:16;;;;;;;1.15;0.93;;;;;;;;;;5113418;28;20101;-82
2023/03/11 00:27:41;;;;;;;1.90;1.00;;;;;;;;;;5095466;28;20058;-82
2023/03/11 00:30:08;;;;;;;2.55;1.08;;;;;;;;;;5095073;28;20031;-82
2023/03/11 00:32:33;;;;;;;2.03;0.98;;;;;;;;;;5094810;28;20046;-82
2023/03/11 00:34:58;;;;;;;3.17;1.27;;;;;;;;;;5113110;28;20028;-82
2023/03/11 00:37:24;;;;;;;2.10;1.20;;;;;;;;;;5112547;28;20385;-82
2023/03/11 00:39:49;;;;;;;2.78;1.13;;;;;;;;;;5094771;28;20109;-82
2023/03/11 00:42:14;;;;;;;3.38;1.10;;;;;;;;;;5094860;28;20040;-82
2023/03/11 00:44:40;;;;;;;4.32;1.10;;;;;;;;;;5113354;28;20028;-82
2023/03/11 00:47:06;;;;;;;1.67;0.90;;;;;;;;;;5113593;28;20031;-81
2023/03/11 00:49:31;;;;;;;1.95;1.00;;;;;;;;;;5094610;28;20027;-81
2023/03/11 00:51:57;;;;;;;4.93;1.02;;;;;;;;;;5094692;28;20393;-81
2023/03/11 00:54:22;;;;;;;1.75;1.10;;;;;;;;;;5094996;28;20039;-82
2023/03/11 00:56:48;;;;;;;2.03;0.90;;;;;;;;;;5113233;28;20023;-82
2023/03/11 00:59:13;;;;;;;5.53;1.23;;;;;;;;;;5095071;28;20039;-81
2023/03/11 01:01:38;;;;;;;1.63;1.10;;;;;;;;;;5112831;28;20031;-81
2023/03/11 01:04:04;;;;;;;1.88;1.10;;;;;;;;;;5113361;28;20474;-81
2023/03/11 01:06:29;;;;;;;2.65;0.90;;;;;;;;;;5112902;28;20036;-81
2023/03/11 01:08:54;;;;;;;1.10;0.98;;;;;;;;;;5077694;28;20031;-81
2023/03/11 01:11:20;;;;;;;5.53;1.08;;;;;;;;;;5112804;28;20499;-80
2023/03/11 01:13:45;;;;;;;0.80;0.70;;;;;;;;;;5077650;28;20035;-81
2023/03/11 01:16:11;;;;;;;1.67;0.88;;;;;;;;;;5077799;28;20481;-81
2023/03/11 01:18:36;;;;;;;1.63;0.90;;;;;;;;;;5113011;28;20032;-81
2023/03/11 01:21:02;;;;;;;1.70;1.00;;;;;;;;;;5113200;28;20059;-82
2023/03/11 01:23:27;;;;;;;6.32;1.23;;;;;;;;;;5094524;28;20023;-82
2023/03/11 01:25:53;;;;;;;2.30;1.00;;;;;;;;;;5094469;28;20028;-82
2023/03/11 01:28:18;;;;;;;2.50;1.10;;;;;;;;;;5094515;28;20031;-81
2023/03/11 01:30:44;;;;;;;1.55;0.95;;;;;;;;;;5094446;28;20375;-81
2023/03/11 01:33:14;;;;;;;0.95;0.82;;;;;;;;;;5112503;28;20073;-81
2023/03/11 01:35:41;;;;;;;2.40;0.90;;;;;;;;;;5094793;28;20424;-81
2023/03/11 01:38:06;;;;;;;2.80;1.00;;;;;;;;;;5112660;28;20386;-81
2023/03/11 01:40:41;;;;;;;1.35;0.90;;;;;;;;;;5094252;28;20052;-80
2023/03/11 01:43:35;;;;;;;4.43;1.05;;;;;;;;;;5094444;28;20110;-81
2023/03/11 01:46:01;;;;;;;3.97;0.88;;;;;;;;;;5094239;28;20031;-81
2023/03/11 01:48:27;;;;;;;6.63;1.20;;;;;;;;;;5113361;28;20024;-81
2023/03/11 01:50:53;;;;;;;1.73;1.05;;;;;;;;;;5116708;28;20030;-80
2023/03/11 01:53:18;;;;;;;2.35;1.00;;;;;;;;;;5116231;28;20032;-80
2023/03/11 01:55:44;;;;;;;2.22;1.10;;;;;;;;;;5080890;28;20043;-80
2023/03/11 01:58:14;;;;;;;1.67;1.10;;;;;;;;;;5099007;28;20094;-81
2023/03/11 02:00:41;;;;;;;3.13;0.80;;;;;;;;;;5116285;28;20020;-80
2023/03/11 02:03:29;;;;;;;1.92;0.95;;;;;;;;;;5081334;28;20118;-81
2023/03/11 02:05:56;;;;;;;1.27;1.00;;;;;;;;;;5097961;28;20097;-81
2023/03/11 02:08:22;;;;;;;2.78;1.40;;;;;;;;;;5081014;28;20023;-83
2023/03/11 02:10:48;;;;;;;2.40;1.10;;;;;;;;;;5097703;28;20102;-80
2023/03/11 02:13:15;;;;;;;1.42;0.80;;;;;;;;;;5098196;28;20039;-82
2023/03/11 02:15:40;;;;;;;1.27;1.00;;;;;;;;;;5080698;28;20131;-82
2023/03/11 02:18:06;;;;;;;1.83;1.00;;;;;;;;;;5097497;28;20106;-82
2023/03/11 02:20:58;;;;;;;2.15;0.95;;;;;;;;;;5097524;28;20375;-81
2023/03/11 02:23:29;;;;;;;2.92;1.20;;;;;;;;;;5101250;28;20054;-80
2023/03/11 02:26:10;;;;;;;4.82;1.33;;;;;;;;;;5097299;28;20020;-82
2023/03/11 02:28:36;;;;;;;1.10;0.77;;;;;;;;;;5097456;28;20024;-82
2023/03/11 02:31:02;;;;;;;1.42;0.77;;;;;;;;;;5097238;28;20032;-84
2023/03/11 02:33:30;;;;;;;2.08;1.00;;;;;;;;;;5097630;28;20081;-83
2023/03/11 02:35:56;;;;;;;3.15;0.93;;;;;;;;;;5097244;28;20551;-83
2023/03/11 02:38:22;;;;;;;1.73;0.88;;;;;;;;;;5096897;28;20128;-83
2023/03/11 02:40:54;;;;;;;1.90;1.13;;;;;;;;;;5096997;28;20505;-82
2023/03/11 02:43:45;;;;;;;0.60;0.60;;;;;;;;;;5115788;28;20031;-82
2023/03/11 02:46:11;;;;;;;1.67;0.95;;;;;;;;;;5096711;28;20389;-81
2023/03/11 02:48:36;;;;;;;1.08;0.88;;;;;;;;;;5096987;28;20032;-82
2023/03/11 02:51:02;;;;;;;0.70;0.70;;;;;;;;;;5115177;28;20032;-82
2023/03/11 02:53:29;;;;;;;1.95;0.98;;;;;;;;;;5115738;28;20097;-81
2023/03/11 02:55:54;;;;;;;2.42;0.70;;;;;;;;;;5097066;28;20446;-82
2023/03/11 02:58:20;;;;;;;2.60;1.00;;;;;;;;;;5116360;28;20028;-80
2023/03/11 03:00:45;;;;;;;0.93;0.80;;;;;;;;;;5096377;28;20476;-81
2023/03/11 03:03:11;;;;;;;2.00;0.85;;;;;;;;;;5096754;28;20034;-80
2023/03/11 03:05:36;;;;;;;1.67;0.75;;;;;;;;;;5115057;28;20480;-81
2023/03/11 03:08:01;;;;;;;1.75;0.77;;;;;;;;;;5096599;28;20034;-81
2023/03/11 03:10:27;;;;;;;1.70;0.90;;;;;;;;;;5096839;28;20028;-80
2023/03/11 03:12:52;;;;;;;1.92;0.90;;;;;;;;;;5115065;28;20535;-82
2023/03/11 03:15:18;;;;;;;1.30;0.80;;;;;;;;;;5096444;28;20071;-82
2023/03/11 03:17:44;;;;;;;0.80;0.68;;;;;;;;;;5114775;28;20031;-83
2023/03/11 03:20:11;;;;;;;3.80;1.00;;;;;;;;;;5114862;28;20109;-82
2023/03/11 03:22:38;;;;;;;1.50;0.70;;;;;;;;;;5096435;28;20027;-81
2023/03/11 03:25:04;;;;;;;1.98;0.93;;;;;;;;;;5096131;28;20035;-81
2023/03/11 03:27:29;;;;;;;3.08;0.85;;;;;;;;;;5114586;28;20024;-81
2023/03/11 03:29:54;;;;;;;0.98;0.73;;;;;;;;;;5114676;28;20300;-81
2023/03/11 03:32:20;;;;;;;0.93;0.80;;;;;;;;;;5114248;28;20035;-81
2023/03/11 03:34:45;;;;;;;1.40;0.85;;;;;;;;;;5114361;28;20020;-81
2023/03/11 03:37:10;;;;;;;1.40;0.65;;;;;;;;;;5096187;28;20031;-81
2023/03/11 03:39:36;;;;;;;1.50;0.93;;;;;;;;;;5114122;28;20067;-81
2023/03/11 03:42:01;;;;;;;1.55;0.90;;;;;;;;;;5095951;28;20575;-81
2023/03/11 03:44:27;;;;;;;1.95;0.93;;;;;;;;;;5114057;28;20028;-81
2023/03/11 03:46:52;;;;;;;0.98;0.70;;;;;;;;;;5095717;28;20031;-82
2023/03/11 03:49:17;;;;;;;1.70;0.60;;;;;;;;;;5113958;28;20046;-82
2023/03/11 03:51:43;;;;;;;0.88;0.70;;;;;;;;;;5095595;28;20127;-83
2023/03/11 03:54:08;;;;;;;0.60;0.60;;;;;;;;;;5114271;28;20035;-83
2023/03/11 03:56:34;;;;;;;0.70;0.70;;;;;;;;;;5095915;28;20473;-81
2023/03/11 03:58:59;;;;;;;1.10;0.80;;;;;;;;;;5079305;28;20063;-81
2023/03/11 04:01:25;;;;;;;2.25;0.70;;;;;;;;;;5078802;28;20081;-83
2023/03/11 04:03:50;;;;;;;0.70;0.70;;;;;;;;;;5113984;28;20111;-81
2023/03/11 04:06:21;;;;;;;1.23;0.60;;;;;;;;;;5113753;28;20024;-82
2023/03/11 04:08:47;;;;;;;2.60;0.88;;;;;;;;;;5095700;28;20118;-81
2023/03/11 04:11:13;;;;;;;1.30;0.77;;;;;;;;;;5095611;28;20059;-82
2023/03/11 04:13:39;;;;;;;1.55;0.73;;;;;;;;;;5094619;28;20126;-82
2023/03/11 04:16:06;;;;;;;1.85;0.82;;;;;;;;;;5113608;28;20088;-81
2023/03/11 04:18:32;;;;;;;1.00;0.70;;;;;;;;;;5095594;28;20019;-81
2023/03/11 04:20:57;;;;;;;2.00;0.70;;;;;;;;;;5095403;28;20028;-82
2023/03/11 04:23:23;;;;;;;0.52;0.52;;;;;;;;;;5113717;28;20024;-82
2023/03/11 04:25:48;;;;;;;0.73;0.63;;;;;;;;;;5095496;28;20101;-82
2023/03/11 04:28:14;;;;;;;1.85;0.60;;;;;;;;;;5095792;28;20036;-82
2023/03/11 04:30:39;;;;;;;1.10;0.70;;;;;;;;;;5095356;28;20074;-82
2023/03/11 04:33:05;;;;;;;0.50;0.50;;;;;;;;;;5113317;28;20044;-81
2023/03/11 04:35:30;;;;;;;2.35;0.70;;;;;;;;;;5113638;28;20035;-79
2023/03/11 04:37:56;;;;;;;2.58;0.82;;;;;;;;;;5095020;28;20028;-80
2023/03/11 04:40:21;;;;;;;1.88;0.77;;;;;;;;;;5113069;28;20052;-82
2023/03/11 04:42:47;;;;;;;0.55;0.50;;;;;;;;;;5095161;28;20081;-82
2023/03/11 04:45:12;;;;;;;0.60;0.60;;;;;;;;;;5113263;28;20024;-82
2023/03/11 04:47:38;;;;;;;1.38;0.73;;;;;;;;;;5095336;28;20035;-82
2023/03/11 04:50:03;;;;;;;1.33;0.70;;;;;;;;;;5113373;28;20386;-82
2023/03/11 04:52:29;;;;;;;0.55;0.55;;;;;;;;;;5095166;28;20035;-82
2023/03/11 04:54:54;;;;;;;1.30;0.80;;;;;;;;;;5113373;28;20082;-81
2023/03/11 04:57:20;;;;;;;1.23;0.60;;;;;;;;;;5113186;28;20184;-82
2023/03/11 04:59:46;;;;;;;1.08;0.70;;;;;;;;;;5113280;28;20028;-81
2023/03/11 05:02:11;;;;;;;0.60;0.60;;;;;;;;;;5113085;28;20024;-83
2023/03/11 05:04:36;;;;;;;0.85;0.50;;;;;;;;;;5113497;28;20157;-82
2023/03/11 05:07:02;;;;;;;4.07;0.98;;;;;;;;;;5112911;28;20106;-81
2023/03/11 05:09:27;;;;;;;2.88;0.77;;;;;;;;;;5094656;28;20411;-81
2023/03/11 05:11:53;;;;;;;2.42;0.75;;;;;;;;;;5094742;28;20470;-82
2023/03/11 05:14:18;;;;;;;1.05;0.73;;;;;;;;;;5094787;28;20039;-82
2023/03/11 05:16:43;;;;;;;1.67;0.80;;;;;;;;;;5112904;28;20024;-83
2023/03/11 05:21:52;;;;;;;1.05;0.45;;;;;;;;;;5097809;28;20509;-82
2023/03/11 05:24:18;;;;;;;0.93;0.70;;;;;;;;;;5115055;28;20070;-82
2023/03/11 05:26:43;;;;;;;0.90;0.70;;;;;;;;;;5098574;28;20039;-83
2023/03/11 05:29:09;;;;;;;0.73;0.60;;;;;;;;;;5098952;28;20039;-83
2023/03/11 05:31:34;;;;;;;2.15;0.68;;;;;;;;;;5117083;28;20119;-82
2023/03/11 05:33:59;;;;;;;0.88;0.57;;;;;;;;;;5117219;28;20039;-81
2023/03/11 05:36:25;;;;;;;1.50;0.80;;;;;;;;;;5116544;28;20038;-81
2023/03/11 05:38:52;;;;;;;2.78;0.80;;;;;;;;;;5098537;28;20019;-81
2023/03/11 05:41:17;;;;;;;0.57;0.57;;;;;;;;;;5081599;28;20382;-81
2023/03/11 05:43:43;;;;;;;1.48;0.68;;;;;;;;;;5099282;28;20039;-82
2023/03/11 05:46:09;;;;;;;0.82;0.63;;;;;;;;;;5082106;28;20036;-82
2023/03/11 05:48:35;;;;;;;1.90;0.80;;;;;;;;;;5099279;28;20038;-82
2023/03/11 05:51:00;;;;;;;0.70;0.60;;;;;;;;;;5084984;28;20035;-82
2023/03/11 05:53:25;;;;;;;1.52;0.90;;;;;;;;;;5085566;28;20091;-82
2023/03/11 05:55:58;;;;;;;1.00;0.60;;;;;;;;;;5112717;28;20032;-81
2023/03/11 05:58:24;;;;;;;0.98;0.52;;;;;;;;;;5087091;28;20046;-80
2023/03/11 06:00:49;;;;;;;1.02;0.60;;;;;;;;;;5117364;28;20469;-80
2023/03/11 06:03:14;;;;;;;1.10;0.70;;;;;;;;;;5116541;28;20034;-79
2023/03/11 06:05:47;;;;;;;1.25;0.60;;;;;;;;;;5098095;28;20023;-80
2023/03/11 06:08:13;;;;;;;1.33;0.80;;;;;;;;;;5116629;28;20028;-82
2023/03/11 06:10:38;;;;;;;1.52;0.68;;;;;;;;;;5099229;28;20115;-82
2023/03/11 06:13:04;;;;;;;0.50;0.50;;;;;;;;;;5101419;28;20073;-82
2023/03/11 06:15:30;;;;;;;2.20;0.65;;;;;;;;;;5098931;28;20107;-82
2023/03/11 06:17:55;;;;;;;0.60;0.60;;;;;;;;;;5098948;28;20031;-82
2023/03/11 06:20:21;;;;;;;1.63;0.60;;;;;;;;;;5098699;28;20035;-81
2023/03/11 06:22:50;;;;;;;2.00;0.70;;;;;;;;;;5106669;28;20506;-81
2023/03/11 06:25:18;;;;;;;0.63;0.63;;;;;;;;;;5083926;28;20035;-83
2023/03/11 06:27:49;;;;;;;1.48;0.60;;;;;;;;;;5098215;28;20327;-83
2023/03/11 06:30:15;;;;;;;1.00;0.70;;;;;;;;;;5118219;28;20028;-82
2023/03/11 06:32:42;;;;;;;0.50;0.50;;;;;;;;;;5115989;28;20497;-81
2023/03/11 06:35:08;;;;;;;2.45;0.70;;;;;;;;;;5080478;28;20036;-82
2023/03/11 06:37:37;;;;;;;1.15;0.90;;;;;;;;;;5116408;28;20031;-82
2023/03/11 06:40:04;;;;;;;1.42;0.63;;;;;;;;;;5081146;28;20043;-81
2023/03/11 06:42:30;;;;;;;2.45;0.90;;;;;;;;;;5117135;28;20059;-82
2023/03/11 06:44:55;;;;;;;1.00;0.50;;;;;;;;;;5098148;28;20113;-84
2023/03/11 06:47:20;;;;;;;0.63;0.60;;;;;;;;;;5103448;28;20028;-81
2023/03/11 06:49:46;;;;;;;1.75;0.85;;;;;;;;;;5117348;28;20024;-82
2023/03/11 06:52:12;;;;;;;1.58;0.80;;;;;;;;;;5065765;28;20059;-81
2023/03/11 06:54:37;;;;;;;3.33;0.70;;;;;;;;;;5116999;28;20035;-79
2023/03/11 06:57:06;;;;;;;0.93;0.60;;;;;;;;;;5116539;28;20077;-81
2023/03/11 06:59:31;;;;;;;1.02;0.73;;;;;;;;;;5099606;28;20123;-80
2023/03/11 07:01:57;;;;;;;2.05;0.70;;;;;;;;;;5116578;28;20478;-82
2023/03/11 07:04:23;;;;;;;0.75;0.63;;;;;;;;;;5117065;28;20082;-80
2023/03/11 07:06:48;;;;;;;4.47;1.25;;;;;;;;;;5119609;28;20031;-83
2023/03/11 07:09:14;;;;;;;2.30;0.80;;;;;;;;;;5082446;28;20082;-84
2023/03/11 07:11:39;;;;;;;3.70;0.80;;;;;;;;;;5087141;28;20028;-83
2023/03/11 07:14:05;;;;;;;2.15;1.00;;;;;;;;;;5099141;28;20462;-87
2023/03/11 07:16:30;;;;;;;0.73;0.73;;;;;;;;;;5081170;28;20063;-83
2023/03/11 07:18:59;;;;;;;2.65;0.80;;;;;;;;;;5098499;28;20393;-84
2023/03/11 07:21:26;;;;;;;1.70;0.75;;;;;;;;;;5097567;28;20454;-83
2023/03/11 07:23:53;;;;;;;13.23;1.08;;;;;;;;;;5082114;28;20059;-85
2023/03/11 07:26:19;;;;;;;1.65;0.70;;;;;;;;;;5099598;28;20409;-85
2023/03/11 07:28:45;;;;;;;3.40;0.80;;;;;;;;;;5097734;28;20039;-83
2023/03/11 07:31:22;;;;;;;4.88;0.80;;;;;;;;;;5098523;28;20131;-78
2023/03/11 07:33:48;;;;;;;1.73;0.77;;;;;;;;;;5096796;28;20019;-82
2023/03/11 07:36:16;;;;;;;2.33;0.95;;;;;;;;;;5097718;28;20027;-85
2023/03/11 07:38:43;;;;;;;18.83;4.38;;;;;;;;;;5080672;28;20110;-84
2023/03/11 07:41:10;;;;;;;24.98;3.42;;;;;;;;;;5100266;28;20063;-85
2023/03/11 07:43:36;;;;;;;14.55;2.72;;;;;;;;;;5114439;28;20528;-83
2023/03/11 07:46:11;;;;;;;10.27;3.05;;;;;;;;;;5097466;28;20032;-85
2023/03/11 07:48:38;;;;;;;6.63;2.00;;;;;;;;;;5081045;28;20034;-85
2023/03/11 07:51:06;;;;;;;7.18;2.55;;;;;;;;;;5115760;28;20057;-85
2023/03/11 07:53:32;;;;;;;7.07;1.73;;;;;;;;;;5096676;28;20031;-85
2023/03/11 07:55:58;;;;;;;4.85;1.88;;;;;;;;;;5080985;28;20028;-84
2023/03/11 07:58:24;;;;;;;19.67;2.10;;;;;;;;;;5101391;28;20019;-85
2023/03/11 08:00:50;;;;;;;6.82;1.58;;;;;;;;;;5097971;28;20034;-85
2023/03/11 08:03:15;;;;;;;9.68;2.05;;;;;;;;;;5115356;28;20110;-85
2023/03/11 08:05:43;;;;;;;16.42;2.58;;;;;;;;;;5100109;28;20024;-88
2023/03/11 08:08:09;;;;;;;4.47;1.50;;;;;;;;;;5065972;28;20101;-88
2023/03/11 08:10:38;;;;;;;8.05;1.60;;;;;;;;;;5064355;28;20461;-87
2023/03/11 08:13:04;;;;;;;5.32;1.67;;;;;;;;;;5115633;28;20096;-88
2023/03/11 08:15:29;;;;;;;5.57;1.65;;;;;;;;;;5097051;28;20521;-84
2023/03/11 08:17:54;;;;;;;7.20;1.80;;;;;;;;;;5115014;28;20028;-86
2023/03/11 08:20:20;;;;;;;7.03;1.65;;;;;;;;;;5117486;28;20316;-85
2023/03/11 08:22:45;;;;;;;5.47;1.85;;;;;;;;;;5119342;28;20035;-89
2023/03/11 08:25:10;;;;;;;7.05;1.60;;;;;;;;;;5098586;28;20442;-90
2023/03/11 08:27:37;;;;;;;2.10;0.98;;;;;;;;;;5098028;28;20073;-88
2023/03/11 08:30:04;;;;;;;4.60;1.27;;;;;;;;;;5065691;28;20496;-89
2023/03/11 08:32:30;;;;;;;4.55;1.38;;;;;;;;;;5080964;28;20498;-87
2023/03/11 08:34:57;;;;;;;3.30;1.38;;;;;;;;;;5082596;28;20512;-89
2023/03/11 08:37:22;;;;;;;4.60;1.17;;;;;;;;;;5099117;28;20114;-87
2023/03/11 08:39:49;;;;;;;20.80;2.28;;;;;;;;;;5064889;28;20055;-87
2023/03/11 08:42:15;;;;;;;6.60;1.30;;;;;;;;;;5066302;28;20517;-88
2023/03/11 08:44:41;;;;;;;4.35;1.20;;;;;;;;;;5081824;28;20118;-89
2023/03/11 08:47:06;;;;;;;5.35;1.23;;;;;;;;;;5099603;28;20551;-88
2023/03/11 08:49:32;;;;;;;8.80;1.52;;;;;;;;;;5117637;28;20030;-87
2023/03/11 08:51:57;;;;;;;5.35;1.30;;;;;;;;;;5081732;28;20024;-89
2023/03/11 08:54:23;;;;;;;3.10;1.10;;;;;;;;;;5116281;28;20458;-89
2023/03/11 08:56:48;;;;;;;2.55;1.20;;;;;;;;;;5096857;28;20031;-89
2023/03/11 08:59:14;;;;;;;2.92;1.00;;;;;;;;;;5080346;28;20162;-88
2023/03/11 09:01:41;;;;;;;3.83;1.17;;;;;;;;;;5096242;28;20100;-89
2023/03/11 09:04:06;;;;;;;3.75;1.27;;;;;;;;;;5079096;28;20054;-88
2023/03/11 09:06:32;;;;;;;5.15;1.52;;;;;;;;;;5116552;28;20024;-89
2023/03/11 09:08:57;;;;;;;8.20;1.27;;;;;;;;;;5098093;28;20067;-89
2023/03/11 09:11:23;;;;;;;1.38;0.70;;;;;;;;;;5081073;28;20177;-88
2023/03/11 09:13:48;;;;;;;3.10;1.17;;;;;;;;;;5080904;28;20080;-89
2023/03/11 09:16:17;;;;;;;2.88;1.10;;;;;;;;;;5097089;28;20028;-89
2023/03/11 09:18:42;;;;;;;2.20;1.00;;;;;;;;;;5082970;28;20024;-88
2023/03/11 09:21:08;;;;;;;4.07;0.80;;;;;;;;;;5097499;28;20023;-88
2023/03/11 09:23:33;;;;;;;1.60;1.00;;;;;;;;;;5097365;28;20038;-88
2023/03/11 09:25:59;;;;;;;3.92;1.13;;;;;;;;;;5097332;28;20077;-87
2023/03/11 09:28:24;;;;;;;1.35;0.90;;;;;;;;;;5096711;28;20039;-88
2023/03/11 09:30:50;;;;;;;2.40;0.90;;;;;;;;;;5115691;28;20028;-88
2023/03/11 09:33:15;;;;;;;1.83;1.00;;;;;;;;;;5097044;28;20400;-88
2023/03/11 09:35:40;;;;;;;2.20;0.90;;;;;;;;;;5097969;28;20060;-88
2023/03/11 09:38:06;;;;;;;1.90;0.85;;;;;;;;;;5097986;28;20032;-88
2023/03/11 09:40:53;;;;;;;2.03;0.80;;;;;;;;;;5098407;28;20019;-88
2023/03/11 09:43:34;;;;;;;1.10;0.85;;;;;;;;;;5096264;28;20084;-88
2023/03/11 09:46:13;;;;;;;2.05;0.80;;;;;;;;;;5096573;28;20490;-87
2023/03/11 09:48:43;;;;;;;1.40;0.70;;;;;;;;;;5081189;28;20031;-85
2023/03/11 09:51:19;;;;;;;1.50;1.00;;;;;;;;;;5102559;28;20020;-86
2023/03/11 09:53:47;;;;;;;2.28;0.90;;;;;;;;;;5101874;28;20054;-85
2023/03/11 09:56:14;;;;;;;3.25;0.93;;;;;;;;;;5081051;28;20047;-86
2023/03/11 09:58:46;;;;;;;0.75;0.70;;;;;;;;;;5096937;28;20023;-83
2023/03/11 10:01:33;;;;;;;6.60;1.00;;;;;;;;;;5096638;28;20015;-81
2023/03/11 10:04:19;;;;;;;1.27;0.75;;;;;;;;;;5079555;28;20032;-81
2023/03/11 10:06:45;;;;;;;2.50;1.00;;;;;;;;;;5113192;28;20415;-82
2023/03/11 10:09:11;;;;;;;0.98;0.88;;;;;;;;;;5080174;28;20469;-82
2023/03/11 10:11:50;;;;;;;4.70;1.20;;;;;;;;;;5117264;28;20039;-82
2023/03/11 10:14:38;;;;;;;2.80;1.20;;;;;;;;;;5117856;28;20027;-82
2023/03/11 10:17:41;;;;;;;4.82;0.95;;;;;;;;;;5118504;28;20106;-81
2023/03/11 10:20:13;;;;;;;2.33;0.80;;;;;;;;;;5118371;28;20024;-83
2023/03/11 10:23:06;;;;;;;2.88;0.85;;;;;;;;;;5099863;28;20530;-82
2023/03/11 10:25:46;;;;;;;2.65;0.90;;;;;;;;;;5082269;28;20027;-82
2023/03/11 10:28:13;;;;;;;3.80;0.90;;;;;;;;;;5100123;28;20055;-83
2023/03/11 10:30:46;;;;;;;1.05;0.90;;;;;;;;;;5082446;28;20027;-83
2023/03/11 10:33:45;;;;;;;1.63;0.80;;;;;;;;;;5099840;28;20108;-84
2023/03/11 10:36:14;;;;;;;4.13;0.80;;;;;;;;;;5100751;28;20024;-83
2023/03/11 10:38:45;;;;;;;1.35;0.80;;;;;;;;;;5099329;28;20366;-83
2023/03/11 10:41:30;;;;;;;2.53;0.82;;;;;;;;;;5081601;28;20039;-82
2023/03/11 10:44:40;;;;;;;5.63;0.80;;;;;;;;;;5099772;28;20077;-83
2023/03/11 10:47:12;;;;;;;0.70;0.70;;;;;;;;;;5069065;28;20035;-83
2023/03/11 10:49:38;;;;;;;4.50;0.93;;;;;;;;;;5099930;28;20427;-82
2023/03/11 10:52:04;;;;;;;1.70;0.82;;;;;;;;;;5117701;28;20110;-82
2023/03/11 10:54:44;;;;;;;0.95;0.70;;;;;;;;;;5099376;28;20490;-83
2023/03/11 10:57:31;;;;;;;1.40;0.80;;;;;;;;;;5083851;28;20035;-82
2023/03/11 10:59:59;;;;;;;2.50;0.95;;;;;;;;;;5099113;28;20023;-82
2023/03/11 11:02:26;;;;;;;2.15;0.90;;;;;;;;;;5098956;28;20038;-82
2023/03/11 11:05:10;;;;;;;3.55;0.80;;;;;;;;;;5116788;28;20023;-82
2023/03/11 11:07:39;;;;;;;2.30;0.80;;;;;;;;;;5118187;28;20028;-82
2023/03/11 11:10:11;;;;;;;1.17;0.88;;;;;;;;;;5082200;28;20020;-82
2023/03/11 11:12:52;;;;;;;1.85;0.80;;;;;;;;;;5098509;28;20040;-83
2023/03/11 11:15:24;;;;;;;1.15;0.70;;;;;;;;;;5099795;28;20102;-82
2023/03/11 11:17:51;;;;;;;1.52;0.75;;;;;;;;;;5098676;28;20478;-83
2023/03/11 11:20:18;;;;;;;1.83;0.85;;;;;;;;;;5099251;28;20035;-82
2023/03/11 11:22:49;;;;;;;2.25;0.80;;;;;;;;;;5116648;28;20031;-83
2023/03/11 11:25:34;;;;;;;2.72;0.90;;;;;;;;;;5083996;28;20522;-82
2023/03/11 11:28:04;;;;;;;1.63;0.80;;;;;;;;;;5118477;28;20035;-83
2023/03/11 11:30:29;;;;;;;1.98;0.90;;;;;;;;;;5099493;28;20032;-84
2023/03/11 11:32:55;;;;;;;1.02;0.70;;;;;;;;;;5099566;28;20023;-83
2023/03/11 11:35:23;;;;;;;0.82;0.63;;;;;;;;;;5082651;28;20020;-83
2023/03/11 11:37:59;;;;;;;1.30;0.75;;;;;;;;;;5084007;28;20019;-84
2023/03/11 11:40:29;;;;;;;2.13;0.80;;;;;;;;;;5100629;28;20076;-84
2023/03/11 11:42:57;;;;;;;1.58;0.90;;;;;;;;;;5098328;28;20031;-84
2023/03/11 11:45:26;;;;;;;0.85;0.80;;;;;;;;;;5117078;28;20065;-84
2023/03/11 11:47:54;;;;;;;2.20;1.00;;;;;;;;;;5115778;28;20095;-83
2023/03/11 11:50:26;;;;;;;1.15;0.77;;;;;;;;;;5082832;28;20424;-84
2023/03/11 11:52:56;;;;;;;0.90;0.82;;;;;;;;;;5115722;28;20024;-84
2023/03/11 11:55:24;;;;;;;2.05;0.70;;;;;;;;;;5115833;28;20020;-85
2023/03/11 11:57:50;;;;;;;1.30;1.02;;;;;;;;;;5115384;28;20023;-83
2023/03/11 12:00:29;;;;;;;3.08;0.88;;;;;;;;;;5097238;28;20024;-83
2023/03/11 12:03:06;;;;;;;1.08;0.80;;;;;;;;;;5097415;28;20039;-83
2023/03/11 12:05:42;;;;;;;2.90;0.90;;;;;;;;;;5117344;28;20027;-87
2023/03/11 12:08:14;;;;;;;2.97;1.20;;;;;;;;;;5099275;28;20030;-81
2023/03/11 12:10:48;;;;;;;1.70;1.00;;;;;;;;;;5116564;28;20026;-85
2023/03/11 12:14:02;;;;;;;1.48;0.82;;;;;;;;;;5117548;28;20031;-84
2023/03/11 12:16:42;;;;;;;1.83;1.20;;;;;;;;;;5097876;28;20045;-83
2023/03/11 12:19:08;;;;;;;0.95;0.80;;;;;;;;;;5096569;28;20067;-85
2023/03/11 12:22:00;;;;;;;2.63;1.17;;;;;;;;;;5096509;28;20418;-85
2023/03/11 12:24:47;;;;;;;1.42;0.80;;;;;;;;;;5096589;28;20023;-84
2023/03/11 12:27:20;;;;;;;1.23;0.80;;;;;;;;;;5097603;28;20024;-83
2023/03/11 12:29:49;;;;;;;3.10;1.00;;;;;;;;;;5103352;28;20054;-82
2023/03/11 12:32:41;;;;;;;1.15;0.80;;;;;;;;;;5098643;28;20023;-83
2023/03/11 12:35:29;;;;;;;3.28;1.42;;;;;;;;;;5099399;28;20023;-83
2023/03/11 12:38:13;;;;;;;1.20;0.80;;;;;;;;;;5101606;28;20027;-82
2023/03/11 12:40:47;;;;;;;1.50;1.10;;;;;;;;;;5081662;28;20047;-83
2023/03/11 12:43:32;;;;;;;2.40;1.20;;;;;;;;;;5098181;28;20031;-82
2023/03/11 12:46:06;;;;;;;3.30;1.10;;;;;;;;;;5115772;28;20102;-83
2023/03/11 12:48:49;;;;;;;2.72;0.85;;;;;;;;;;5097678;28;20398;-86
2023/03/11 12:51:33;;;;;;;1.10;0.65;;;;;;;;;;5103258;28;20024;-82
2023/03/11 12:54:27;;;;;;;1.27;0.70;;;;;;;;;;5115560;28;20024;-83
2023/03/11 12:56:56;;;;;;;;;;;;;;;;;;5081728;28;20085;-85
2023/03/11 12:59:31;;;;;;;3.28;0.90;;;;;;;;;;5097328;28;19933;-83
2023/03/11 13:02:20;;;;;;;4.45;1.00;;;;;;;;;;5108341;28;20041;-82
2023/03/11 13:04:57;;;;;;;2.10;0.90;;;;;;;;;;5093006;28;20020;-83
2023/03/11 13:07:42;;;;;;;1.88;1.10;;;;;;;;;;5093592;28;20027;-82
2023/03/11 13:10:10;;;;;;;2.42;0.80;;;;;;;;;;5096353;28;20035;-82
2023/03/11 13:12:50;;;;;;;3.60;1.00;;;;;;;;;;5099328;28;20122;-80
2023/03/11 13:15:21;;;;;;;3.05;0.80;;;;;;;;;;5096347;28;20463;-81
2023/03/11 13:18:12;;;;;;;2.33;1.00;;;;;;;;;;5091931;28;20032;-83
2023/03/11 13:20:37;;;;;;;1.23;0.80;;;;;;;;;;5075527;28;20078;-81
2023/03/11 13:23:32;;;;;;;3.65;1.30;;;;;;;;;;5110654;28;20027;-84
2023/03/11 13:26:30;;;;;;;1.40;0.88;;;;;;;;;;5113007;28;20016;-83
2023/03/11 13:29:14;;;;;;;4.00;0.82;;;;;;;;;;5096786;28;20050;-83
2023/03/11 13:31:51;;;;;;;2.78;1.00;;;;;;;;;;5114582;28;20028;-80
2023/03/11 13:34:20;;;;;;;3.45;1.05;;;;;;;;;;5113865;28;20061;-82
2023/03/11 13:37:03;;;;;;;0.95;0.70;;;;;;;;;;5094508;28;20020;-83
2023/03/11 13:39:50;;;;;;;4.03;0.70;;;;;;;;;;5094992;28;20034;-83
2023/03/11 13:42:24;;;;;;;4.15;1.08;;;;;;;;;;5113752;28;20058;-82
2023/03/11 13:44:50;;;;;;;1.70;1.00;;;;;;;;;;5115404;28;20418;-82
2023/03/11 13:47:17;;;;;;;2.15;0.80;;;;;;;;;;5099467;28;20117;-81
2023/03/11 13:49:42;;;;;;;1.35;0.80;;;;;;;;;;5100595;28;20095;-81
2023/03/11 13:52:31;;;;;;;2.47;0.73;;;;;;;;;;5117923;28;20513;-82
2023/03/11 13:55:16;;;;;;;2.13;0.95;;;;;;;;;;5068177;28;20036;-81
2023/03/11 13:57:52;;;;;;;5.97;1.05;;;;;;;;;;5114042;28;20030;-81
2023/03/11 14:00:22;;;;;;;2.30;1.00;;;;;;;;;;5101692;28;20043;-81
2023/03/11 14:02:54;;;;;;;1.98;1.10;;;;;;;;;;5102854;28;20129;-81
2023/03/11 14:05:43;;;;;;;3.28;0.95;;;;;;;;;;5102718;28;20020;-82
2023/03/11 14:08:18;;;;;;;1.70;0.77;;;;;;;;;;5100007;28;20055;-83
2023/03/11 14:11:03;;;;;;;4.10;1.00;;;;;;;;;;5101036;28;20024;-82
2023/03/11 14:13:37;;;;;;;3.80;0.80;;;;;;;;;;5100435;28;20062;-81
2023/03/11 14:16:32;;;;;;;2.85;1.10;;;;;;;;;;5101705;28;20030;-82
2023/03/11 14:19:14;;;;;;;1.80;1.05;;;;;;;;;;5100463;28;20367;-82
2023/03/11 14:21:54;;;;;;;2.70;1.23;;;;;;;;;;5083526;28;20080;-80
2023/03/11 14:24:23;;;;;;;3.60;0.80;;;;;;;;;;5102111;28;20035;-83
2023/03/11 14:26:54;;;;;;;3.03;1.00;;;;;;;;;;5085711;28;20110;-83
2023/03/11 14:29:31;;;;;;;1.10;0.88;;;;;;;;;;5100203;28;20076;-83
2023/03/11 14:31:56;;;;;;;0.98;0.88;;;;;;;;;;5098676;28;20034;-83
2023/03/11 14:34:26;;;;;;;2.13;1.00;;;;;;;;;;5117226;28;20027;-85
2023/03/11 14:36:57;;;;;;;1.95;1.00;;;;;;;;;;5099050;28;20051;-83
2023/03/11 14:39:44;;;;;;;3.83;0.70;;;;;;;;;;5080247;28;20023;-82
2023/03/11 14:42:12;;;;;;;3.22;0.90;;;;;;;;;;5101365;28;20052;-83
2023/03/11 14:44:40;;;;;;;2.38;1.13;;;;;;;;;;5101346;28;20042;-83
2023/03/11 14:47:17;;;;;;;2.88;0.80;;;;;;;;;;5101939;28;20026;-83
2023/03/11 14:49:43;;;;;;;1.52;0.85;;;;;;;;;;5100841;28;20027;-79
2023/03/11 14:52:24;;;;;;;1.50;0.80;;;;;;;;;;5083399;28;20084;-82
2023/03/11 14:54:52;;;;;;;0.55;0.52;;;;;;;;;;5099614;28;20039;-83
2023/03/11 14:57:25;;;;;;;2.00;0.82;;;;;;;;;;5098929;28;20035;-81
2023/03/11 14:59:52;;;;;;;2.05;0.77;;;;;;;;;;5082851;28;20038;-81
2023/03/11 15:02:36;;;;;;;4.43;0.95;;;;;;;;;;5121393;28;20032;-81